Time;durP1;ratioP1;P1;durP2;ratioP2;P2;SDS_P1;SDS_P2;PMS_P1;PMS_P2;Temp;Humidity;BMP_temperature;BMP_pressure;BME280_temperature;BME280_humidity;BME280_pressure;Samples;Min_cycle;Max_cycle;Signal;HPM_P1;HPM_P2
2022/12/08 00:00:35;;;;;;;42.03;31.67;;;;;;;1.85;100.00;100985.44;5107525;28;20027;-75
2022/12/08 00:03:00;;;;;;;38.80;30.67;;;;;;;1.87;100.00;100984.69;5104424;28;20093;-78
2022/12/08 00:10:53;;;;;;;39.47;31.02;;;;;;;1.92;100.00;100975.38;5105116;28;20042;-76
2022/12/08 00:13:18;;;;;;;39.63;30.30;;;;;;;1.90;100.00;100965.69;5106927;28;20028;-78
2022/12/08 00:15:44;;;;;;;39.88;30.48;;;;;;;1.95;100.00;100961.53;5106225;28;20060;-76
2022/12/08 00:18:09;;;;;;;39.67;30.15;;;;;;;1.92;100.00;100957.09;5105577;28;20062;-74
2022/12/08 00:20:34;;;;;;;39.42;31.13;;;;;;;1.93;100.00;100947.56;5107449;28;20028;-77
2022/12/08 00:23:00;;;;;;;40.85;32.42;;;;;;;1.95;100.00;100948.50;5104089;28;20506;-77
2022/12/08 00:25:25;;;;;;;43.63;32.63;;;;;;;2.00;100.00;100946.09;5107361;28;20032;-77
2022/12/08 00:27:50;;;;;;;42.67;31.90;;;;;;;2.00;100.00;100938.28;5104836;28;20154;-76
2022/12/08 00:30:16;;;;;;;41.13;32.22;;;;;;;2.01;100.00;100929.59;5105916;28;20103;-76
2022/12/08 00:32:41;;;;;;;42.63;32.65;;;;;;;2.00;100.00;100939.16;5106087;28;20390;-77
2022/12/08 00:35:07;;;;;;;43.40;33.95;;;;;;;1.99;100.00;100932.16;5104330;28;20024;-77
2022/12/08 00:37:32;;;;;;;44.83;34.45;;;;;;;2.00;100.00;100933.94;5107376;28;20111;-76
2022/12/08 00:39:57;;;;;;;43.72;33.25;;;;;;;2.02;100.00;100937.50;5103743;28;20063;-68
2022/12/08 00:42:23;;;;;;;42.85;32.88;;;;;;;2.03;100.00;100934.06;5106828;28;20024;-68
2022/12/08 00:44:48;;;;;;;44.75;33.95;;;;;;;2.04;100.00;100922.81;5104860;28;20031;-68
2022/12/08 00:47:14;;;;;;;44.60;33.72;;;;;;;2.01;100.00;100925.31;5105292;28;20107;-68
2022/12/08 00:49:40;;;;;;;43.00;33.35;;;;;;;1.99;100.00;100921.72;5105965;28;20059;-68
2022/12/08 00:52:05;;;;;;;45.67;34.78;;;;;;;1.96;100.00;100924.22;5104158;28;20026;-68
2022/12/08 00:54:30;;;;;;;43.78;33.80;;;;;;;1.95;100.00;100916.31;5106818;28;20031;-68
2022/12/08 00:56:56;;;;;;;43.75;34.40;;;;;;;1.96;100.00;100916.38;5103448;28;20140;-68
2022/12/08 00:59:21;;;;;;;44.42;34.42;;;;;;;1.97;100.00;100915.56;5106201;28;20032;-68
2022/12/08 01:01:47;;;;;;;45.75;34.45;;;;;;;1.96;100.00;100920.72;5104657;28;20111;-68
2022/12/08 01:04:15;;;;;;;46.33;35.03;;;;;;;1.96;100.00;100918.13;5104772;28;20063;-67
2022/12/08 01:06:40;;;;;;;46.03;35.40;;;;;;;1.97;100.00;100914.69;5106042;28;20068;-68
2022/12/08 01:09:06;;;;;;;47.85;35.63;;;;;;;1.97;100.00;100907.75;5103168;28;20024;-70
2022/12/08 01:11:32;;;;;;;43.75;34.08;;;;;;;2.01;100.00;100899.22;5106310;28;20070;-67
2022/12/08 01:13:58;;;;;;;44.83;34.78;;;;;;;2.01;100.00;100900.91;5098889;28;20479;-68
2022/12/08 01:16:25;;;;;;;45.55;36.03;;;;;;;1.99;100.00;100900.88;5105913;28;20031;-68
2022/12/08 01:18:51;;;;;;;43.75;33.60;;;;;;;1.96;100.00;100899.88;5104058;28;20042;-75
2022/12/08 01:21:17;;;;;;;41.80;32.10;;;;;;;1.97;100.00;100892.09;5104810;28;20020;-74
2022/12/08 01:23:42;;;;;;;41.85;30.92;;;;;;;1.97;100.00;100891.22;5104871;28;20485;-72
2022/12/08 01:26:12;;;;;;;39.92;30.45;;;;;;;1.96;100.00;100900.75;5102529;28;20032;-71
2022/12/08 01:28:38;;;;;;;40.55;30.08;;;;;;;1.94;100.00;100894.59;5105566;28;20052;-76
2022/12/08 01:31:03;;;;;;;39.53;29.15;;;;;;;2.00;100.00;100896.56;5102901;28;20121;-76
2022/12/08 01:33:30;;;;;;;39.95;28.23;;;;;;;2.01;100.00;100898.31;5106417;28;20031;-76
2022/12/08 01:35:56;;;;;;;37.40;27.85;;;;;;;2.03;100.00;100891.47;5102661;28;20044;-76
2022/12/08 01:38:21;;;;;;;38.30;27.02;;;;;;;2.06;100.00;100900.28;5105196;28;20036;-76
2022/12/08 01:40:47;;;;;;;36.15;25.90;;;;;;;2.06;100.00;100897.69;5104238;28;20028;-77
2022/12/08 01:43:18;;;;;;;36.25;27.05;;;;;;;2.07;100.00;100893.38;5103970;28;20028;-76
2022/12/08 01:45:43;;;;;;;35.72;25.88;;;;;;;2.04;100.00;100896.72;5104344;28;20061;-76
2022/12/08 01:48:19;;;;;;;36.15;26.52;;;;;;;2.05;100.00;100889.78;5103525;28;20020;-75
2022/12/08 01:50:47;;;;;;;36.25;26.65;;;;;;;2.05;100.00;100879.34;5104459;28;20406;-75
2022/12/08 01:53:23;;;;;;;34.72;25.27;;;;;;;2.03;100.00;100884.50;5103742;28;20032;-77
2022/12/08 01:55:57;;;;;;;36.10;25.90;;;;;;;2.02;100.00;100881.84;5103687;28;20381;-76
2022/12/08 01:58:27;;;;;;;38.83;25.85;;;;;;;1.99;100.00;100880.00;5105284;28;20067;-73
2022/12/08 02:00:53;;;;;;;35.55;24.42;;;;;;;1.97;100.00;100876.47;5102981;28;20024;-75
2022/12/08 02:03:34;;;;;;;35.65;24.48;;;;;;;1.98;100.00;100880.84;5103048;28;20517;-75
2022/12/08 02:06:00;;;;;;;36.38;24.60;;;;;;;1.97;100.00;100884.28;5098277;28;20032;-74
2022/12/08 02:08:27;;;;;;;34.78;24.48;;;;;;;1.96;100.00;100874.66;5105265;28;20034;-72
2022/12/08 02:10:52;;;;;;;34.28;24.15;;;;;;;1.98;100.00;100870.44;5102907;28;20073;-74
2022/12/08 02:13:20;;;;;;;34.40;24.27;;;;;;;1.99;100.00;100866.97;5104287;28;20133;-70
2022/12/08 02:15:54;;;;;;;34.30;23.67;;;;;;;1.99;100.00;100869.56;5103634;28;20092;-76
2022/12/08 02:18:38;;;;;;;33.67;23.13;;;;;;;2.00;100.00;100865.25;5104256;28;20024;-76
2022/12/08 02:21:03;;;;;;;33.95;23.80;;;;;;;2.01;100.00;100861.81;5098651;28;20078;-72
2022/12/08 02:23:28;;;;;;;33.95;23.25;;;;;;;2.00;100.00;100866.16;5105236;28;20023;-67
2022/12/08 02:26:21;;;;;;;34.58;23.38;;;;;;;1.96;100.00;100848.59;5102138;28;20030;-68
2022/12/08 02:29:17;;;;;;;33.50;22.25;;;;;;;1.96;100.00;100856.41;5102093;28;20028;-68
2022/12/08 02:32:00;;;;;;;31.10;20.17;;;;;;;1.97;100.00;100847.78;5099557;28;20040;-68
2022/12/08 02:34:46;;;;;;;30.48;20.08;;;;;;;1.99;100.00;100843.50;5101897;28;20039;-68
2022/12/08 02:37:23;;;;;;;30.73;19.13;;;;;;;2.00;100.00;100840.06;5100271;28;20048;-68
2022/12/08 02:39:59;;;;;;;28.42;17.58;;;;;;;2.03;100.00;100829.75;5102876;28;20020;-68
2022/12/08 02:42:31;;;;;;;28.52;17.05;;;;;;;2.00;100.00;100824.41;5104380;28;20024;-69
2022/12/08 02:45:05;;;;;;;28.85;16.58;;;;;;;2.06;100.00;100829.00;5101696;28;20550;-68
2022/12/08 02:47:33;;;;;;;26.77;15.77;;;;;;;2.02;100.00;100819.25;5097696;28;20020;-69
2022/12/08 02:49:58;;;;;;;27.90;15.80;;;;;;;2.03;100.00;100823.66;5104882;28;20027;-68
2022/12/08 02:52:23;;;;;;;27.33;15.70;;;;;;;1.99;100.00;100817.41;5102147;28;20039;-68
2022/12/08 02:54:55;;;;;;;27.85;15.60;;;;;;;2.00;100.00;100811.38;5103232;28;20479;-68
2022/12/08 02:57:41;;;;;;;27.77;15.38;;;;;;;2.00;100.00;100810.50;5102372;28;20106;-67
2022/12/08 03:00:12;;;;;;;26.83;14.70;;;;;;;2.00;100.00;100805.28;5098661;28;20035;-68
2022/12/08 03:02:57;;;;;;;30.00;15.93;;;;;;;2.00;100.00;100813.13;5103869;28;20474;-67
2022/12/08 03:05:34;;;;;;;27.95;16.10;;;;;;;1.99;100.00;100807.00;5103695;28;20035;-68
2022/12/08 03:08:34;;;;;;;28.40;16.20;;;;;;;2.02;100.00;100801.88;5097461;28;20028;-69
2022/12/08 03:11:21;;;;;;;28.88;16.80;;;;;;;2.04;100.00;100805.47;5092790;28;20514;-67
2022/12/08 03:13:57;;;;;;;29.15;17.10;;;;;;;2.04;100.00;100801.94;5101252;28;20020;-67
2022/12/08 03:16:25;;;;;;;28.70;18.10;;;;;;;2.03;100.00;100802.78;5101839;28;20156;-68
2022/12/08 03:19:02;;;;;;;29.60;17.50;;;;;;;2.09;100.00;100801.28;5102276;28;20115;-68
2022/12/08 03:21:28;;;;;;;29.77;18.00;;;;;;;2.08;100.00;100796.03;5101358;28;20475;-68
2022/12/08 03:23:56;;;;;;;30.60;18.05;;;;;;;2.06;100.00;100795.97;5103658;28;20035;-68
2022/12/08 03:26:44;;;;;;;29.67;18.52;;;;;;;2.06;100.00;100792.47;5101858;28;20050;-68
2022/12/08 03:29:10;;;;;;;31.25;19.70;;;;;;;2.08;100.00;100789.09;5098660;28;20035;-68
2022/12/08 03:31:40;;;;;;;31.80;18.77;;;;;;;2.12;100.00;100787.47;5104535;28;20463;-68
2022/12/08 03:34:08;;;;;;;33.13;20.45;;;;;;;2.13;100.00;100784.06;5103843;28;20024;-77
2022/12/08 03:36:33;;;;;;;33.15;21.30;;;;;;;2.14;100.00;100784.94;5108434;28;20058;-77
2022/12/08 03:38:59;;;;;;;35.53;23.48;;;;;;;2.13;100.00;100777.97;5101343;28;20115;-74
2022/12/08 03:41:24;;;;;;;36.15;23.83;;;;;;;2.11;100.00;100775.25;5107591;28;20023;-77
2022/12/08 03:43:49;;;;;;;38.17;24.55;;;;;;;2.11;100.00;100772.66;5106060;28;20031;-77
2022/12/08 03:46:16;;;;;;;38.65;25.00;;;;;;;2.11;100.00;100772.66;5106513;28;20024;-77
2022/12/08 03:48:42;;;;;;;41.38;27.70;;;;;;;2.11;100.00;100766.56;5107063;28;20035;-76
2022/12/08 03:51:08;;;;;;;44.70;30.23;;;;;;;2.12;100.00;100765.75;5105249;28;20032;-75
2022/12/08 03:53:33;;;;;;;46.80;30.77;;;;;;;2.13;100.00;100768.41;5108257;28;20038;-73
2022/12/08 03:55:59;;;;;;;51.92;34.15;;;;;;;2.15;100.00;100768.47;5103335;28;20375;-76
2022/12/08 03:58:24;;;;;;;51.65;34.65;;;;;;;2.14;100.00;100761.47;5107896;28;20493;-73
2022/12/08 04:00:49;;;;;;;53.35;33.85;;;;;;;2.16;100.00;100762.44;5106251;28;20032;-77
2022/12/08 04:03:15;;;;;;;56.15;36.10;;;;;;;2.19;100.00;100759.94;5106234;28;20020;-77
2022/12/08 04:05:40;;;;;;;59.30;37.75;;;;;;;2.18;100.00;100760.75;5107203;27;20035;-76
2022/12/08 04:08:05;;;;;;;59.20;38.33;;;;;;;2.18;100.00;100753.81;5104793;28;20028;-76
2022/12/08 04:10:31;;;;;;;62.55;38.40;;;;;;;2.19;100.00;100749.50;5108064;28;20028;-78
2022/12/08 04:12:56;;;;;;;59.72;38.65;;;;;;;2.17;100.00;100749.44;5105096;28;20031;-76
2022/12/08 04:15:22;;;;;;;62.22;40.22;;;;;;;2.17;100.00;100753.75;5106912;28;20039;-67
2022/12/08 04:17:47;;;;;;;59.17;38.30;;;;;;;2.15;100.00;100745.88;5104562;28;20356;-67
2022/12/08 04:20:13;;;;;;;58.95;37.38;;;;;;;2.15;100.00;100751.09;5105484;28;20361;-69
2022/12/08 04:22:38;;;;;;;57.80;36.50;;;;;;;2.15;100.00;100750.19;5105898;28;20110;-68
2022/12/08 04:25:04;;;;;;;59.05;37.80;;;;;;;2.14;100.00;100759.75;5103965;28;20162;-68
2022/12/08 04:27:29;;;;;;;57.17;38.08;;;;;;;2.15;100.00;100739.78;5107635;28;20028;-67
2022/12/08 04:29:55;;;;;;;59.22;38.28;;;;;;;2.13;100.00;100737.09;5104563;28;20085;-67
2022/12/08 04:32:20;;;;;;;54.42;34.53;;;;;;;2.13;100.00;100731.91;5105991;28;20032;-72
2022/12/08 04:34:45;;;;;;;53.28;33.88;;;;;;;2.09;100.00;100732.59;5106072;28;20024;-68
2022/12/08 04:37:11;;;;;;;49.72;31.00;;;;;;;2.08;100.00;100729.13;5104583;28;20048;-68
2022/12/08 04:39:36;;;;;;;47.85;29.83;;;;;;;2.08;100.00;100736.03;5107226;28;20382;-67
2022/12/08 04:42:01;;;;;;;45.30;28.65;;;;;;;2.04;100.00;100726.31;5104022;28;20371;-67
2022/12/08 04:44:27;;;;;;;46.22;28.55;;;;;;;2.03;100.00;100722.84;5105321;28;20374;-68
2022/12/08 04:46:52;;;;;;;45.53;27.13;;;;;;;2.00;100.00;100714.03;5104793;28;20031;-67
2022/12/08 04:49:17;;;;;;;41.92;26.15;;;;;;;1.99;100.00;100717.44;5105350;28;20037;-68
2022/12/08 04:51:43;;;;;;;40.55;24.70;;;;;;;1.96;100.00;100710.41;5105855;28;20028;-68
2022/12/08 04:54:08;;;;;;;38.63;22.75;;;;;;;1.96;100.00;100710.41;5104256;28;20036;-68
2022/12/08 04:56:33;;;;;;;38.30;22.83;;;;;;;1.95;100.00;100721.66;5107019;28;20024;-68
2022/12/08 04:58:59;;;;;;;36.47;22.05;;;;;;;1.94;100.00;100714.69;5102326;28;20518;-67
2022/12/08 05:01:24;;;;;;;34.85;20.55;;;;;;;1.92;100.00;100719.84;5106272;28;20027;-68
2022/12/08 05:03:49;;;;;;;32.88;17.55;;;;;;;1.92;100.00;100708.50;5104647;28;20054;-68
2022/12/08 05:06:15;;;;;;;32.60;17.23;;;;;;;1.92;100.00;100713.72;5104606;28;20036;-68
2022/12/08 05:08:42;;;;;;;28.13;14.13;;;;;;;1.96;100.00;100714.72;5104931;28;20032;-68
2022/12/08 05:11:09;;;;;;;24.38;11.20;;;;;;;1.92;100.00;100727.66;5103461;28;20423;-68
2022/12/08 05:13:34;;;;;;;23.10;9.90;;;;;;;1.99;100.00;100731.38;5106821;27;20028;-68
2022/12/08 05:16:08;;;;;;;22.45;9.15;;;;;;;1.96;100.00;100733.88;5103073;28;20475;-68
2022/12/08 05:18:33;;;;;;;20.55;8.30;;;;;;;1.92;100.00;100727.66;5099263;28;20115;-67
2022/12/08 05:20:58;;;;;;;21.52;8.18;;;;;;;1.90;100.00;100738.84;5106188;28;20418;-67
2022/12/08 05:23:24;;;;;;;21.73;8.35;;;;;;;1.85;100.00;100727.34;5103880;28;20036;-68
2022/12/08 05:25:50;;;;;;;21.38;8.15;;;;;;;1.88;100.00;100720.56;5104879;28;20035;-67
2022/12/08 05:28:15;;;;;;;22.25;8.15;;;;;;;1.84;100.00;100720.38;5104769;28;20055;-68
2022/12/08 05:30:41;;;;;;;21.58;8.15;;;;;;;1.84;100.00;100715.16;5103816;28;20039;-68
2022/12/08 05:33:06;;;;;;;22.75;9.52;;;;;;;1.83;100.00;100714.25;5104919;28;20110;-69
2022/12/08 05:35:31;;;;;;;23.13;9.77;;;;;;;1.84;100.00;100712.56;5102711;28;20127;-78
2022/12/08 05:37:56;;;;;;;22.95;10.10;;;;;;;1.85;100.00;100714.31;5105994;28;20097;-78
2022/12/08 05:40:22;;;;;;;23.02;10.98;;;;;;;1.82;100.00;100715.13;5103694;28;20028;-79
2022/12/08 05:42:47;;;;;;;24.73;11.68;;;;;;;1.84;100.00;100712.56;5103168;28;20429;-78
2022/12/08 05:45:12;;;;;;;24.92;11.50;;;;;;;1.84;100.00;100712.56;5104917;28;20034;-78
2022/12/08 05:47:38;;;;;;;23.83;11.00;;;;;;;1.85;100.00;100709.09;5102727;28;20031;-78
2022/12/08 05:50:04;;;;;;;23.45;10.00;;;;;;;1.85;100.00;100714.31;5106225;28;20028;-79
2022/12/08 05:52:31;;;;;;;21.33;8.73;;;;;;;1.87;100.00;100704.84;5102477;28;20063;-77
2022/12/08 05:54:56;;;;;;;19.25;6.57;;;;;;;1.89;100.00;100711.91;5105308;28;20085;-78
2022/12/08 05:57:21;;;;;;;18.27;5.47;;;;;;;1.89;100.00;100716.22;5103392;28;20402;-77
2022/12/08 05:59:47;;;;;;;18.05;5.57;;;;;;;1.77;100.00;100706.22;5103718;28;20432;-77
2022/12/08 06:02:12;;;;;;;18.42;5.97;;;;;;;1.73;100.00;100702.63;5103818;28;20056;-77
2022/12/08 06:04:37;;;;;;;18.92;5.68;;;;;;;1.67;100.00;100699.75;5101290;28;20107;-78
2022/12/08 06:07:03;;;;;;;18.67;5.97;;;;;;;1.65;100.00;100704.03;5105884;28;20032;-77
2022/12/08 06:09:28;;;;;;;19.88;6.00;;;;;;;1.63;100.00;100697.88;5101410;28;20038;-77
2022/12/08 06:11:53;;;;;;;18.88;5.97;;;;;;;1.63;100.00;100696.97;5104346;28;20028;-77
2022/12/08 06:14:19;;;;;;;18.05;6.05;;;;;;;1.65;100.00;100698.81;5103693;28;20492;-78
2022/12/08 06:16:44;;;;;;;19.55;6.75;;;;;;;1.65;100.00;100705.75;5103361;28;20020;-78
2022/12/08 06:19:09;;;;;;;19.75;7.00;;;;;;;1.63;100.00;100697.88;5105151;28;20486;-78
2022/12/08 06:21:35;;;;;;;19.33;6.43;;;;;;;1.67;100.00;100698.88;5101912;28;20039;-75
2022/12/08 06:24:00;;;;;;;19.50;6.40;;;;;;;1.70;100.00;100696.38;5105590;28;20039;-74
2022/12/08 06:26:25;;;;;;;18.42;6.38;;;;;;;1.65;100.00;100695.34;5102466;27;20497;-79
2022/12/08 06:28:51;;;;;;;19.10;6.38;;;;;;;1.62;100.00;100705.66;5103881;28;20101;-79
2022/12/08 06:31:22;;;;;;;19.88;6.70;;;;;;;1.64;100.00;100694.44;5102513;28;20409;-79
2022/12/08 06:33:48;;;;;;;20.05;6.85;;;;;;;1.64;100.00;100693.56;5101297;28;20059;-67
2022/12/08 06:36:15;;;;;;;19.13;6.28;;;;;;;1.64;100.00;100699.63;5097565;28;20080;-77
2022/12/08 06:38:41;;;;;;;19.40;6.28;;;;;;;1.60;100.00;100697.75;5100147;28;20027;-69
2022/12/08 06:41:07;;;;;;;18.60;5.70;;;;;;;1.53;100.00;100686.22;5096875;28;20032;-72
2022/12/08 06:43:32;;;;;;;17.77;5.60;;;;;;;1.55;100.00;100691.47;5098081;28;20049;-74
2022/12/08 06:45:58;;;;;;;17.45;5.75;;;;;;;1.49;100.00;100694.75;5099108;28;20032;-73
2022/12/08 06:48:24;;;;;;;18.73;5.93;;;;;;;1.55;100.00;100694.09;5095974;28;20024;-69
2022/12/08 06:50:49;;;;;;;20.38;6.57;;;;;;;1.49;100.00;100699.06;5097276;28;20490;-72
2022/12/08 06:53:15;;;;;;;20.67;7.68;;;;;;;1.48;100.00;100686.88;5096237;28;20035;-76
2022/12/08 06:55:45;;;;;;;21.23;7.47;;;;;;;1.53;100.00;100686.22;5098682;28;20024;-71
2022/12/08 06:58:11;;;;;;;19.45;7.05;;;;;;;1.51;100.00;100692.19;5098860;28;20032;-73
2022/12/08 07:00:37;;;;;;;20.02;7.47;;;;;;;1.52;100.00;100683.56;5095249;28;20031;-77
2022/12/08 07:03:02;;;;;;;19.55;7.28;;;;;;;1.55;100.00;100681.06;5094207;28;20024;-76
2022/12/08 07:05:27;;;;;;;19.98;7.90;;;;;;;1.55;100.00;100688.88;5103224;28;20032;-77
2022/12/08 07:07:53;;;;;;;21.17;8.00;;;;;;;1.55;100.00;100688.88;5095697;28;20066;-66
2022/12/08 07:10:18;;;;;;;20.70;7.70;;;;;;;1.49;100.00;100673.00;5093740;28;20085;-67
2022/12/08 07:12:44;;;;;;;20.52;7.88;;;;;;;1.61;100.00;100693.44;5097784;28;20024;-66
2022/12/08 07:15:09;;;;;;;20.65;8.13;;;;;;;1.63;100.00;100689.16;5097783;28;20028;-65
2022/12/08 07:17:34;;;;;;;20.65;8.65;;;;;;;1.64;100.00;100693.56;5095616;28;20513;-65
2022/12/08 07:20:00;;;;;;;21.25;8.70;;;;;;;1.66;100.00;100697.09;5096255;28;20055;-66
2022/12/08 07:22:25;;;;;;;21.55;9.57;;;;;;;1.72;100.00;100695.63;5099492;28;20052;-66
2022/12/08 07:24:51;;;;;;;22.52;10.30;;;;;;;1.74;100.00;100706.09;5096904;28;20383;-65
2022/12/08 07:27:16;;;;;;;21.20;9.30;;;;;;;1.77;100.00;100705.34;5096437;28;20024;-67
2022/12/08 07:29:41;;;;;;;23.30;9.52;;;;;;;1.76;100.00;100700.94;5089460;28;20036;-66
2022/12/08 07:32:07;;;;;;;22.52;9.70;;;;;;;1.74;100.00;100700.88;5090973;28;20063;-65
2022/12/08 07:34:33;;;;;;;26.27;12.38;;;;;;;1.75;100.00;100700.06;5092850;28;20043;-66
2022/12/08 07:36:59;;;;;;;26.75;14.65;;;;;;;1.69;100.00;100692.91;5091105;28;20079;-71
2022/12/08 07:39:24;;;;;;;34.53;21.08;;;;;;;1.68;100.00;100696.34;5092762;28;20055;-71
2022/12/08 07:41:49;;;;;;;34.88;22.02;;;;;;;1.71;100.00;100696.44;5093685;28;20455;-66
2022/12/08 07:44:15;;;;;;;36.70;21.75;;;;;;;1.71;100.00;100688.63;5096489;28;20060;-67
2022/12/08 07:46:40;;;;;;;35.75;22.88;;;;;;;1.70;100.00;100679.06;5095791;28;20500;-67
2022/12/08 07:49:06;;;;;;;37.03;23.25;;;;;;;1.72;100.00;100684.31;5097398;28;20110;-67
2022/12/08 07:51:31;;;;;;;37.33;23.30;;;;;;;1.73;100.00;100678.25;5094715;28;20081;-67
2022/12/08 07:53:57;;;;;;;42.50;26.45;;;;;;;1.73;100.00;100684.38;5094721;28;20031;-70
2022/12/08 07:56:23;;;;;;;47.85;30.63;;;;;;;1.72;100.00;100686.94;5097814;28;20078;-68
2022/12/08 07:58:48;;;;;;;58.00;38.17;;;;;;;1.80;100.00;100692.41;5095057;28;20024;-76
2022/12/08 08:01:29;;;;;;;64.97;42.15;;;;;;;1.83;100.00;100690.78;5101859;28;20106;-76
2022/12/08 08:03:55;;;;;;;64.03;44.22;;;;;;;1.81;100.00;100699.41;5094966;28;20024;-77
2022/12/08 08:06:21;;;;;;;58.75;40.67;;;;;;;1.80;100.00;100706.31;5096387;28;20059;-78
2022/12/08 08:08:46;;;;;;;53.50;37.55;;;;;;;1.75;100.00;100702.69;5096764;28;20051;-78
2022/12/08 08:11:12;;;;;;;48.25;33.38;;;;;;;1.70;100.00;100704.19;5090683;28;20074;-73
2022/12/08 08:13:37;;;;;;;44.28;30.48;;;;;;;1.68;100.00;100696.34;5094612;28;20139;-77
2022/12/08 08:16:08;;;;;;;41.53;27.73;;;;;;;1.64;100.00;100698.75;5089984;28;20497;-77
2022/12/08 08:18:35;;;;;;;37.35;24.83;;;;;;;1.66;100.00;100697.09;5092684;28;20041;-78
2022/12/08 08:21:01;;;;;;;36.38;24.60;;;;;;;1.60;100.00;100696.88;5096001;28;20060;-69
2022/12/08 08:23:27;;;;;;;35.25;22.52;;;;;;;1.64;100.00;100699.63;5095307;28;20047;-80
2022/12/08 08:25:52;;;;;;;32.85;21.92;;;;;;;1.61;100.00;100696.03;5098332;28;20036;-77
2022/12/08 08:28:18;;;;;;;32.70;20.23;;;;;;;1.66;100.00;100694.50;5097006;28;20056;-79
2022/12/08 08:30:45;;;;;;;32.65;19.55;;;;;;;1.69;100.00;100705.03;5101184;28;20067;-75
2022/12/08 08:33:11;;;;;;;31.52;20.65;;;;;;;1.64;100.00;100706.59;5097965;28;20069;-71
2022/12/08 08:35:36;;;;;;;31.17;19.55;;;;;;;1.67;100.00;100702.38;5098969;28;20032;-70
2022/12/08 08:38:02;;;;;;;31.73;19.45;;;;;;;1.66;100.00;100698.00;5096236;28;20048;-70
2022/12/08 08:40:27;;;;;;;29.77;17.60;;;;;;;1.64;100.00;100699.63;5082774;28;20131;-69
2022/12/08 08:42:52;;;;;;;25.27;13.60;;;;;;;1.61;100.00;100696.03;5099695;28;20399;-71
2022/12/08 08:45:18;;;;;;;23.00;11.15;;;;;;;1.63;100.00;100694.38;5097926;28;20032;-78
2022/12/08 08:47:43;;;;;;;22.70;10.18;;;;;;;1.65;100.00;100688.41;5098255;28;20143;-78
2022/12/08 08:50:09;;;;;;;22.25;9.70;;;;;;;1.62;100.00;100684.81;5097857;28;20059;-78
2022/12/08 08:52:34;;;;;;;21.73;10.20;;;;;;;1.63;100.00;100697.88;5098932;28;20032;-76
2022/12/08 08:55:00;;;;;;;22.30;10.05;;;;;;;1.62;100.00;100690.91;5098642;28;20035;-77
2022/12/08 08:57:25;;;;;;;21.50;9.75;;;;;;;1.59;100.00;100698.59;5103169;28;20024;-76
2022/12/08 08:59:51;;;;;;;22.30;10.30;;;;;;;1.54;100.00;100695.81;5103549;28;20089;-77
2022/12/08 09:02:18;;;;;;;21.75;9.25;;;;;;;1.63;100.00;100692.69;5099238;28;20032;-77
2022/12/08 09:04:43;;;;;;;20.67;9.60;;;;;;;1.63;100.00;100697.88;5103284;28;20032;-77
2022/12/08 09:07:09;;;;;;;21.45;9.60;;;;;;;1.64;100.00;100690.94;5106182;28;20023;-77
2022/12/08 09:09:36;;;;;;;23.05;9.43;;;;;;;1.66;100.00;100694.50;5104882;28;20132;-77
2022/12/08 09:12:01;;;;;;;23.08;10.10;;;;;;;1.68;100.00;100695.44;5104572;28;20028;-77
2022/12/08 09:14:27;;;;;;;22.63;10.45;;;;;;;1.69;100.00;100687.69;5106126;28;20382;-76
2022/12/08 09:16:52;;;;;;;29.27;17.25;;;;;;;1.77;100.00;100689.69;5103202;28;20360;-78
2022/12/08 09:19:18;;;;;;;31.83;19.27;;;;;;;1.80;100.00;100687.19;5106884;28;20389;-77
2022/12/08 09:21:43;;;;;;;31.70;19.13;;;;;;;1.90;100.00;100684.97;5103634;28;20074;-67
2022/12/08 09:24:14;;;;;;;31.60;18.70;;;;;;;1.93;100.00;100689.44;5105220;28;20086;-67
2022/12/08 09:26:42;;;;;;;31.17;19.23;;;;;;;1.95;100.00;100692.97;5103807;28;20061;-67
2022/12/08 09:29:08;;;;;;;32.72;21.27;;;;;;;1.95;100.00;100685.16;5105304;28;20044;-67
2022/12/08 09:31:33;;;;;;;32.85;20.90;;;;;;;2.02;100.00;100681.94;5103794;28;20023;-67
2022/12/08 09:33:59;;;;;;;33.78;21.08;;;;;;;2.05;100.00;100676.84;5103716;28;20024;-67
2022/12/08 09:36:25;;;;;;;33.00;20.75;;;;;;;2.04;100.00;100682.91;5105931;28;20039;-67
2022/12/08 09:38:53;;;;;;;32.00;20.45;;;;;;;2.01;100.00;100687.09;5102535;28;20492;-67
2022/12/08 09:41:30;;;;;;;28.92;16.92;;;;;;;2.02;100.00;100684.53;5097508;28;20027;-67
2022/12/08 09:44:01;;;;;;;28.42;17.00;;;;;;;2.01;100.00;100688.00;5100638;28;20032;-67
2022/12/08 09:46:30;;;;;;;28.13;16.17;;;;;;;1.98;100.00;100687.91;5105371;28;20027;-67
2022/12/08 09:48:58;;;;;;;28.77;16.80;;;;;;;1.99;100.00;100688.78;5103062;28;20036;-67
2022/12/08 09:51:25;;;;;;;29.40;17.88;;;;;;;2.03;100.00;100682.84;5105733;28;20539;-67
2022/12/08 09:53:56;;;;;;;30.20;19.25;;;;;;;2.05;100.00;100694.19;5102389;28;20142;-67
2022/12/08 09:56:25;;;;;;;33.10;20.58;;;;;;;2.09;100.00;100689.16;5098827;28;20028;-67
2022/12/08 09:59:33;;;;;;;38.58;25.00;;;;;;;2.15;100.00;100682.38;5089553;28;20515;-77
2022/12/08 10:02:00;;;;;;;47.50;32.60;;;;;;;2.09;100.00;100677.84;5085801;28;20443;-77
2022/12/08 10:04:36;;;;;;;49.63;35.22;;;;;;;2.00;100.00;100677.50;5093049;28;20063;-72
2022/12/08 10:07:24;;;;;;;54.22;36.28;;;;;;;1.98;100.00;100685.28;5095516;28;20024;-78
2022/12/08 10:10:25;;;;;;;56.30;38.10;;;;;;;1.92;100.00;100680.72;5098827;28;20036;-76
2022/12/08 10:12:53;;;;;;;63.75;41.78;;;;;;;1.98;100.00;100679.16;5096545;28;20032;-71
2022/12/08 10:15:42;;;;;;;67.55;43.55;;;;;;;1.93;100.00;100671.19;5096174;28;20085;-71
2022/12/08 10:18:30;;;;;;;67.15;43.28;;;;;;;1.91;100.00;100668.53;5094411;28;20035;-78
2022/12/08 10:21:21;;;;;;;69.13;43.17;;;;;;;1.90;100.00;100671.06;5098036;28;20418;-80
2022/12/08 10:23:51;;;;;;;66.88;44.08;;;;;;;1.89;100.00;100671.88;5097549;28;20028;-79
2022/12/08 10:26:19;;;;;;;65.90;43.42;;;;;;;1.92;100.00;100662.47;5093304;28;20119;-79
2022/12/08 10:28:45;;;;;;;65.78;43.33;;;;;;;1.92;100.00;100657.25;5097176;28;20021;-81
2022/12/08 10:31:22;;;;;;;65.00;42.88;;;;;;;1.92;100.00;100664.19;5097572;28;20028;-78
2022/12/08 10:33:53;;;;;;;63.45;42.40;;;;;;;1.92;100.00;100664.19;5097550;28;20073;-79
2022/12/08 10:36:19;;;;;;;63.45;42.50;;;;;;;1.89;100.00;100658.84;5097674;28;20073;-75
2022/12/08 10:38:44;;;;;;;62.03;42.08;;;;;;;1.88;100.00;100657.09;5095625;28;20051;-79
2022/12/08 10:41:12;;;;;;;63.38;42.25;;;;;;;1.88;100.00;100657.09;5096639;28;20028;-78
2022/12/08 10:43:42;;;;;;;64.13;42.10;;;;;;;1.87;100.00;100664.00;5097430;28;20043;-78
2022/12/08 10:46:27;;;;;;;64.97;41.70;;;;;;;1.89;100.00;100661.47;5098991;28;20050;-79
2022/12/08 10:49:08;;;;;;;62.85;39.85;;;;;;;1.84;100.00;100660.41;5101847;28;20394;-78
2022/12/08 10:51:36;;;;;;;58.63;38.72;;;;;;;1.88;100.00;100657.97;5097547;28;20028;-77
2022/12/08 10:54:04;;;;;;;54.80;36.15;;;;;;;1.87;100.00;100660.53;5099718;28;20556;-77
2022/12/08 10:56:31;;;;;;;53.95;35.92;;;;;;;1.82;100.00;100657.75;5096756;28;20435;-79
2022/12/08 10:59:14;;;;;;;41.60;24.55;;;;;;;1.70;100.00;100658.19;5096136;28;20035;-77
2022/12/08 11:01:43;;;;;;;43.13;27.05;;;;;;;1.64;100.00;100657.94;5096181;28;20039;-79
2022/12/08 11:04:18;;;;;;;46.95;29.27;;;;;;;1.65;100.00;100659.72;5100356;28;20085;-72
2022/12/08 11:06:44;;;;;;;46.92;31.13;;;;;;;1.66;100.00;100645.88;5099508;28;20020;-77
2022/12/08 11:09:18;;;;;;;47.92;31.30;;;;;;;1.71;100.00;100649.53;5100834;28;20501;-78
2022/12/08 11:11:46;;;;;;;40.42;25.70;;;;;;;1.63;100.00;100645.78;5102349;28;20459;-78
2022/12/08 11:14:21;;;;;;;40.38;27.08;;;;;;;1.56;100.00;100642.03;5103665;28;20023;-77
2022/12/08 11:16:48;;;;;;;39.80;27.05;;;;;;;1.56;100.00;100646.38;5095206;28;20107;-75
2022/12/08 11:19:18;;;;;;;41.38;28.85;;;;;;;1.58;100.00;100639.47;5094229;28;20028;-75
2022/12/08 11:21:43;;;;;;;42.53;30.02;;;;;;;1.62;100.00;100635.28;5095061;28;20395;-71